createdAt,value
2023-03-28T00:00:31.528Z,99794.45
2023-03-28T00:02:58.487Z,99791.18
2023-03-28T00:05:25.619Z,99795.04
2023-03-28T00:07:54.178Z,99793.39
2023-03-28T00:10:21.181Z,99794.09
2023-03-28T00:12:48.224Z,99795.05
2023-03-28T00:15:15.591Z,99793.22
2023-03-28T00:17:43.396Z,99793.74
2023-03-28T00:20:11.987Z,99793.83
2023-03-28T00:22:39.268Z,99796.71
2023-03-28T00:25:07.988Z,99792.10
2023-03-28T00:27:36.389Z,99790.93
2023-03-28T00:30:05.472Z,99792.38
2023-03-28T00:32:32.368Z,99791.09
2023-03-28T00:34:59.185Z,99791.85
2023-03-28T00:37:26.046Z,99790.70
2023-03-28T00:39:54.012Z,99792.78
2023-03-28T00:42:24.013Z,99792.11
2023-03-28T00:44:56.399Z,99793.70
2023-03-28T00:47:39.144Z,99791.23
2023-03-28T00:50:22.849Z,99789.55
2023-03-28T00:53:05.359Z,99791.70
2023-03-28T00:55:44.837Z,99790.16
2023-03-28T00:58:17.457Z,99784.30
2023-03-28T01:00:47.785Z,99779.70
2023-03-28T01:03:18.989Z,99777.61
2023-03-28T01:05:48.006Z,99778.72
2023-03-28T01:08:22.847Z,99776.94
2023-03-28T01:10:50.370Z,99775.66
2023-03-28T01:13:21.422Z,99775.25
2023-03-28T01:15:51.925Z,99767.91
2023-03-28T01:18:22.989Z,99765.72
2023-03-28T01:20:58.889Z,99763.46
2023-03-28T01:24:10.815Z,99768.00
2023-03-28T01:27:04.522Z,99763.52
2023-03-28T01:29:31.399Z,99766.00
2023-03-28T01:32:17.763Z,99764.54
2023-03-28T01:35:07.536Z,99770.14
2023-03-28T01:38:02.594Z,99768.69
2023-03-28T01:40:38.634Z,99766.96
2023-03-28T01:43:25.798Z,99768.77
2023-03-28T01:46:11.674Z,99768.68
2023-03-28T01:48:57.153Z,99767.29
2023-03-28T01:51:37.673Z,99767.23
2023-03-28T01:54:13.798Z,99765.15
2023-03-28T01:57:12.478Z,99765.34
2023-03-28T01:59:45.030Z,99763.68
2023-03-28T02:02:37.106Z,99760.85
2023-03-28T02:05:24.260Z,99755.59
2023-03-28T02:07:52.438Z,99753.83
2023-03-28T02:10:30.945Z,99749.86
2023-03-28T02:13:11.658Z,99751.16
2023-03-28T02:19:25.170Z,99752.01
2023-03-28T02:22:39.846Z,99750.06
2023-03-28T02:25:26.383Z,99748.59
2023-03-28T02:28:25.184Z,99741.05
2023-03-28T02:31:09.722Z,99736.00
2023-03-28T02:33:39.634Z,99744.06
2023-03-28T02:36:30.305Z,99743.09
2023-03-28T02:39:15.602Z,99747.32
2023-03-28T02:41:54.705Z,99747.37
2023-03-28T02:44:33.411Z,99745.06
2023-03-28T02:47:39.030Z,99742.17
2023-03-28T02:50:28.440Z,99738.91
2023-03-28T02:53:22.587Z,99740.79
2023-03-28T02:56:15.258Z,99734.41
2023-03-28T02:59:08.960Z,99731.21
2023-03-28T03:01:37.057Z,99731.89
2023-03-28T03:04:04.255Z,99736.84
2023-03-28T03:06:31.236Z,99746.86
2023-03-28T03:08:58.081Z,99743.92
2023-03-28T03:11:28.653Z,99739.37
2023-03-28T03:13:57.569Z,99737.66
2023-03-28T03:16:24.669Z,99737.14
2023-03-28T03:18:52.122Z,99737.04
2023-03-28T03:21:19.002Z,99735.98
2023-03-28T03:23:45.972Z,99735.29
2023-03-28T03:26:13.422Z,99734.59
2023-03-28T03:28:44.762Z,99736.86
2023-03-28T03:31:11.992Z,99733.52
2023-03-28T03:33:39.002Z,99733.75
2023-03-28T03:36:06.966Z,99734.77
2023-03-28T03:38:34.132Z,99735.19
2023-03-28T03:41:01.379Z,99735.09
2023-03-28T03:43:28.561Z,99735.14
2023-03-28T03:45:56.645Z,99732.77
2023-03-28T03:48:23.658Z,99727.83
2023-03-28T03:50:55.708Z,99721.28
2023-03-28T03:53:22.612Z,99713.58
2023-03-28T03:56:14.276Z,99714.73
2023-03-28T03:58:52.958Z,99712.23
2023-03-28T04:01:19.839Z,99714.52
2023-03-28T04:03:48.378Z,99714.83
2023-03-28T04:06:21.323Z,99713.20
2023-03-28T04:08:48.216Z,99711.92
2023-03-28T04:11:20.929Z,99709.69
2023-03-28T04:13:47.791Z,99709.08
2023-03-28T04:16:15.628Z,99717.38
2023-03-28T04:18:51.153Z,99716.98
2023-03-28T04:21:25.964Z,99720.50
2023-03-28T04:23:54.899Z,99721.45
2023-03-28T04:26:50.797Z,99715.32
2023-03-28T04:29:25.341Z,99716.66
2023-03-28T04:32:13.043Z,99714.54
2023-03-28T04:35:03.578Z,99714.20
2023-03-28T04:37:30.676Z,99720.13
2023-03-28T04:40:01.777Z,99719.04
2023-03-28T04:42:42.754Z,99713.73
2023-03-28T04:45:19.300Z,99708.13
2023-03-28T04:47:48.378Z,99703.45
2023-03-28T04:50:19.961Z,99709.17
2023-03-28T04:52:46.843Z,99709.11
2023-03-28T04:55:16.429Z,99703.97
2023-03-28T04:57:43.971Z,99703.20
